Time;durP1;ratioP1;P1;durP2;ratioP2;P2;SDS_P1;SDS_P2;PMS_P1;PMS_P2;Temp;Humidity;BMP_temperature;BMP_pressure;BME280_temperature;BME280_humidity;BME280_pressure;Samples;Min_cycle;Max_cycle;Signal;HPM_P1;HPM_P2
2022/01/12 00:01:24;;;;;;;1.13;0.87;;;;;;;1.44;100.00;102474.84;5072747;28;20323;-73
2022/01/12 00:03:49;;;;;;;2.63;1.53;;;;;;;1.52;100.00;102487.31;5072531;28;20820;-73
2022/01/12 00:06:15;;;;;;;1.83;1.23;;;;;;;1.57;100.00;102493.75;5071320;28;20179;-73
2022/01/12 00:08:41;;;;;;;0.10;0.10;;;;;;;1.62;100.00;102496.69;5072445;28;20173;-73
2022/01/12 00:11:07;;;;;;;2.00;1.90;;;;;;;1.75;100.00;102493.22;5072321;28;20174;-73
2022/01/12 00:13:34;;;;;;;2.40;1.77;;;;;;;1.82;100.00;102499.44;5072244;28;20178;-73
2022/01/12 00:16:02;;;;;;;1.33;1.30;;;;;;;1.93;100.00;102496.16;5072251;28;20174;-73
2022/01/12 00:18:28;;;;;;;1.53;1.43;;;;;;;2.06;100.00;102507.00;5070902;28;20416;-73
2022/01/12 00:20:54;;;;;;;1.67;1.50;;;;;;;2.11;100.00;102509.06;5072218;28;20436;-73
2022/01/12 00:23:20;;;;;;;0.80;0.63;;;;;;;2.09;99.78;102497.66;5070748;28;20476;-73
2022/01/12 00:33:53;;;;;;;3.33;1.33;;;;;;;2.15;98.71;102491.44;5072008;28;20524;-74
2022/01/12 00:36:20;;;;;;;2.83;1.60;;;;;;;2.20;97.97;102497.06;5071725;28;20178;-73
2022/01/12 00:38:46;;;;;;;1.73;1.63;;;;;;;2.22;97.67;102491.47;5071955;28;20443;-73
2022/01/12 00:41:11;;;;;;;1.90;1.13;;;;;;;2.23;97.47;102498.50;5071965;28;20291;-73
2022/01/12 00:43:42;;;;;;;1.40;1.00;;;;;;;2.24;96.70;102492.91;5071870;28;20257;-73
2022/01/12 00:46:07;;;;;;;1.47;1.37;;;;;;;2.21;96.55;102479.84;5072017;28;20174;-72
2022/01/12 00:48:36;;;;;;;1.30;1.20;;;;;;;2.20;96.98;102478.19;5070462;28;20170;-73
2022/01/12 00:51:02;;;;;;;2.37;1.70;;;;;;;2.23;96.94;102477.78;5071612;28;20685;-73
2022/01/12 00:53:28;;;;;;;2.27;2.03;;;;;;;2.21;97.33;102465.53;5071719;28;20262;-74
2022/01/12 00:55:53;;;;;;;1.70;1.27;;;;;;;2.20;97.60;102467.41;5071403;28;20669;-73
2022/01/12 00:58:18;;;;;;;1.23;0.90;;;;;;;2.24;96.88;102465.94;5071359;28;20182;-73
2022/01/12 01:00:44;;;;;;;1.73;0.93;;;;;;;2.25;96.44;102475.69;5070186;28;20181;-73
2022/01/12 01:03:10;;;;;;;1.73;0.73;;;;;;;2.24;96.09;102474.03;5071509;28;20550;-73
2022/01/12 01:05:35;;;;;;;1.90;1.57;;;;;;;2.29;96.04;102476.94;5071521;28;20167;-73
2022/01/12 01:08:01;;;;;;;2.70;1.83;;;;;;;2.35;95.31;102478.00;5071812;28;20631;-74
2022/01/12 01:10:37;;;;;;;6.13;1.27;;;;;;;2.35;94.82;102468.03;5071494;28;20228;-73
2022/01/12 01:13:04;;;;;;;0.80;0.73;;;;;;;2.35;94.39;102456.41;5071505;28;20166;-74
2022/01/12 01:16:45;;;;;;;1.47;1.00;;;;;;;2.41;93.84;102462.84;5071180;28;20174;-73
2022/01/12 01:26:39;;;;;;;0.73;0.60;;;;;;;2.63;90.67;102472.38;5078876;28;20173;-73
2022/01/12 01:29:05;;;;;;;0.10;0.10;;;;;;;2.68;89.75;102470.72;5075635;28;20175;-73
2022/01/12 01:31:33;;;;;;;1.20;1.17;;;;;;;2.72;89.41;102484.63;5070379;28;20539;-73
2022/01/12 01:34:06;;;;;;;2.33;1.27;;;;;;;2.68;89.98;102496.88;5071090;28;20243;-73
2022/01/12 01:36:44;;;;;;;0.73;0.73;;;;;;;2.76;88.62;102491.28;5071052;28;20645;-73
2022/01/12 01:39:11;;;;;;;0.83;0.83;;;;;;;2.69;89.64;102501.22;5070866;28;20174;-73
2022/01/12 01:41:39;;;;;;;1.30;1.07;;;;;;;2.72;88.41;102500.81;5070732;28;20197;-73
2022/01/12 01:54:42;;;;;;;2.13;0.50;;;;;;;2.58;89.40;102494.56;5070525;28;20262;-73
2022/01/12 01:57:08;;;;;;;0.97;0.80;;;;;;;2.55;89.55;102503.09;5069293;28;20253;-73
2022/01/12 01:59:33;;;;;;;2.63;1.40;;;;;;;2.55;89.26;102503.09;5070580;28;20265;-73
2022/01/12 02:01:58;;;;;;;4.67;0.73;;;;;;;2.53;89.70;102498.94;5069264;28;20624;-73
2022/01/12 02:04:24;;;;;;;0.27;0.27;;;;;;;2.54;89.24;102492.50;5070497;28;20175;-72
2022/01/12 02:06:50;;;;;;;2.67;1.40;;;;;;;2.54;89.36;102506.84;5070324;28;20299;-73
2022/01/12 02:09:16;;;;;;;0.53;0.50;;;;;;;2.57;89.61;102510.97;5070436;28;20218;-73
2022/01/12 02:11:42;;;;;;;2.13;1.70;;;;;;;2.56;89.46;102514.72;5069223;28;20174;-73
2022/01/12 02:14:11;;;;;;;1.70;1.17;;;;;;;2.57;89.83;102510.97;5070432;28;20178;-73
2022/01/12 02:16:49;;;;;;;1.43;0.77;;;;;;;2.52;90.14;102521.56;5070412;28;20175;-73
2022/01/12 02:19:42;;;;;;;1.43;0.80;;;;;;;2.53;89.92;102518.66;5069060;28;20225;-72
2022/01/12 02:35:51;;;;;;;3.43;1.43;;;;;;;2.49;90.35;102530.91;5073918;28;20200;-73
2022/01/12 02:41:04;;;;;;;4.67;1.27;;;;;;;2.48;90.16;102544.63;5074066;28;20197;-73
2022/01/12 02:53:52;;;;;;;0.20;0.20;;;;;;;2.55;88.75;102545.44;5074142;28;20171;-73
2022/01/12 02:56:23;;;;;;;0.10;0.10;;;;;;;2.55;88.14;102538.16;5072184;28;20171;-72
2022/01/12 02:58:51;;;;;;;1.07;1.00;;;;;;;2.53;88.52;102531.31;5073574;28;20175;-73
2022/01/12 03:03:47;;;;;;;1.23;1.03;;;;;;;2.46;89.82;102534.03;5073893;28;20178;-72
2022/01/12 03:06:17;;;;;;;0.40;0.40;;;;;;;2.49;89.27;102535.47;5073438;28;20170;-73
2022/01/12 03:08:43;;;;;;;2.47;1.40;;;;;;;2.48;89.40;102534.66;5072137;28;20170;-73
2022/01/12 03:11:12;;;;;;;1.13;0.53;;;;;;;2.46;89.55;102531.34;5073450;28;20184;-73
2022/01/12 03:13:38;;;;;;;0.20;0.20;;;;;;;2.42;89.51;102529.22;5073265;28;20182;-73
2022/01/12 03:16:13;;;;;;;0.93;0.90;;;;;;;2.35;90.44;102518.44;5073240;28;20281;-73
2022/01/12 03:18:38;;;;;;;0.80;0.80;;;;;;;2.33;90.79;102518.66;5072063;28;20170;-73
2022/01/12 03:21:05;;;;;;;0.33;0.33;;;;;;;2.34;90.59;102523.00;5071949;28;20182;-73
2022/01/12 03:23:31;;;;;;;1.33;1.20;;;;;;;2.31;91.14;102519.88;5073228;28;20212;-72
2022/01/12 03:25:56;;;;;;;0.73;0.57;;;;;;;2.35;90.47;102530.06;5073011;28;20175;-73
2022/01/12 03:28:21;;;;;;;7.37;1.37;;;;;;;2.35;90.47;102529.25;5073397;28;20178;-73
2022/01/12 03:38:38;;;;;;;0.70;0.67;;;;;;;2.30;91.55;102508.25;5072963;28;20170;-72
2022/01/12 03:41:03;;;;;;;1.63;1.27;;;;;;;2.33;91.15;102507.88;5069974;28;20646;-73
2022/01/12 03:43:28;;;;;;;8.97;1.70;;;;;;;2.36;90.99;102512.84;5072869;28;20210;-73
2022/01/12 03:45:54;;;;;;;1.00;0.67;;;;;;;2.39;90.72;102501.63;5071345;28;20187;-72
2022/01/12 03:48:19;;;;;;;0.70;0.70;;;;;;;2.38;90.69;102499.97;5072641;28;20213;-72
2022/01/12 03:50:45;;;;;;;1.67;1.47;;;;;;;2.37;90.90;102486.69;5072896;28;20626;-72
2022/01/12 03:53:10;;;;;;;2.40;0.53;;;;;;;2.35;91.07;102495.00;5072665;28;20228;-73
2022/01/12 03:55:35;;;;;;;3.10;2.83;;;;;;;2.36;90.83;102493.97;5071089;28;20257;-73
2022/01/12 03:58:01;;;;;;;1.90;1.80;;;;;;;2.41;90.66;102500.59;5071289;28;20634;-73
2022/01/12 04:00:26;;;;;;;5.03;1.00;;;;;;;2.43;90.07;102498.53;5071219;28;20681;-72
2022/01/12 04:02:52;;;;;;;0.97;0.93;;;;;;;2.45;89.81;102499.13;5072382;28;20500;-72
2022/01/12 04:10:35;;;;;;;0.60;0.50;;;;;;;2.40;90.83;102491.69;5072754;28;20509;-72
2022/01/12 04:13:01;;;;;;;0.43;0.40;;;;;;;2.45;90.32;102508.06;5072243;28;20638;-73
2022/01/12 04:15:27;;;;;;;1.23;1.13;;;;;;;2.45;90.54;102513.47;5072105;28;20178;-72
2022/01/12 04:17:53;;;;;;;2.83;1.23;;;;;;;2.48;90.14;102504.97;5070891;28;20638;-72
2022/01/12 04:20:18;;;;;;;0.60;0.47;;;;;;;2.56;88.99;102503.94;5072085;28;20202;-72
2022/01/12 04:25:28;;;;;;;1.63;1.53;;;;;;;2.59;88.77;102508.91;5071822;28;20619;-73
2022/01/12 04:27:54;;;;;;;0.70;0.70;;;;;;;2.60;88.63;102513.25;5070648;28;20314;-73
2022/01/12 04:30:20;;;;;;;1.63;1.53;;;;;;;2.59;88.32;102508.91;5072302;28;20662;-72
2022/01/12 04:32:45;;;;;;;0.53;0.53;;;;;;;2.57;88.69;102503.72;5071813;28;20554;-73
2022/01/12 04:35:13;;;;;;;1.53;1.43;;;;;;;2.56;89.04;102507.44;5071812;28;20175;-73
2022/01/12 04:37:39;;;;;;;0.60;0.60;;;;;;;2.59;88.26;102517.00;5071616;28;20247;-73
2022/01/12 04:40:05;;;;;;;0.20;0.20;;;;;;;2.62;87.94;102514.72;5071591;28;20250;-72
2022/01/12 04:42:30;;;;;;;0.80;0.73;;;;;;;2.58;88.42;102510.78;5071856;28;20205;-72
2022/01/12 04:45:03;;;;;;;1.07;0.73;;;;;;;2.57;88.49;102510.97;5070153;28;20178;-73
2022/01/12 04:50:13;;;;;;;2.07;1.97;;;;;;;2.44;90.42;102509.09;5071425;28;21115;-73
2022/01/12 04:52:38;;;;;;;0.27;0.23;;;;;;;2.42;90.89;102507.66;5071188;28;20499;-73
2022/01/12 04:55:04;;;;;;;3.30;2.07;;;;;;;2.41;90.87;102500.59;5069875;28;20201;-72
2022/01/12 04:57:30;;;;;;;2.83;1.43;;;;;;;2.39;91.03;102503.50;5071487;28;20207;-73
2022/01/12 05:00:08;;;;;;;0.53;0.53;;;;;;;2.37;90.79;102501.00;5071287;28;20187;-73
2022/01/12 05:13:28;;;;;;;1.13;1.03;;;;;;;2.22;94.18;102538.13;5071133;28;20247;-73
2022/01/12 05:15:54;;;;;;;0.90;0.87;;;;;;;2.22;94.91;102543.53;5070805;28;20756;-73
2022/01/12 05:18:19;;;;;;;0.30;0.07;;;;;;;2.16;94.85;102538.09;5071034;28;20533;-73
2022/01/12 05:20:46;;;;;;;2.10;1.87;;;;;;;2.18;95.10;102542.28;5069500;28;20174;-72
2022/01/12 05:23:12;;;;;;;1.63;1.13;;;;;;;2.17;95.25;102546.00;5069341;28;20260;-72
2022/01/12 05:25:39;;;;;;;7.00;0.80;;;;;;;2.17;95.50;102548.72;5069480;28;20202;-72
2022/01/12 05:28:04;;;;;;;1.53;0.93;;;;;;;2.18;95.36;102546.84;5070745;28;20282;-73
2022/01/12 05:30:33;;;;;;;1.30;1.20;;;;;;;2.17;95.32;102548.72;5070940;28;20800;-73
2022/01/12 05:32:59;;;;;;;2.23;0.53;;;;;;;2.14;95.33;102541.00;5069525;28;20266;-72
2022/01/12 05:35:31;;;;;;;0.50;0.50;;;;;;;2.10;95.56;102545.16;5069158;28;20660;-72
2022/01/12 05:37:56;;;;;;;9.90;0.97;;;;;;;2.05;96.05;102547.63;5070784;28;20253;-72
2022/01/12 05:40:21;;;;;;;1.20;1.20;;;;;;;1.99;97.15;102554.66;5069351;28;20511;-73
2022/01/12 05:42:49;;;;;;;3.27;0.43;;;;;;;1.96;97.83;102570.41;5070558;28;20198;-72
2022/01/12 05:45:17;;;;;;;0.30;0.20;;;;;;;1.92;98.20;102569.16;5069204;28;20194;-72
2022/01/12 05:50:08;;;;;;;2.50;2.30;;;;;;;1.84;99.75;102563.91;5070845;28;20312;-73
2022/01/12 05:52:34;;;;;;;0.30;0.30;;;;;;;1.85;100.00;102573.66;5070700;28;20236;-73
2022/01/12 05:55:02;;;;;;;1.70;1.23;;;;;;;1.84;100.00;102572.81;5070198;28;20638;-73
2022/01/12 05:57:29;;;;;;;3.57;3.10;;;;;;;1.84;100.00;102575.53;5070465;28;20220;-73
2022/01/12 05:59:55;;;;;;;1.17;0.97;;;;;;;1.84;100.00;102572.81;5070303;28;20405;-72
2022/01/12 06:02:20;;;;;;;6.40;3.93;;;;;;;1.83;100.00;102567.66;5070209;28;20494;-72
2022/01/12 06:04:46;;;;;;;1.90;1.53;;;;;;;1.82;100.00;102565.97;5073648;28;20174;-72
2022/01/12 06:07:11;;;;;;;4.27;1.90;;;;;;;1.83;100.00;102564.94;5074664;28;20220;-73
2022/01/12 06:09:36;;;;;;;0.43;0.30;;;;;;;1.83;100.00;102563.09;5074401;28;20654;-73
2022/01/12 06:12:02;;;;;;;1.03;1.03;;;;;;;1.84;100.00;102556.66;5073090;28;20205;-73
2022/01/12 06:14:28;;;;;;;0.63;0.60;;;;;;;1.89;100.00;102567.69;5072958;28;20327;-73
2022/01/12 06:16:53;;;;;;;1.93;1.73;;;;;;;1.95;99.80;102577.66;5072685;28;20178;-73
2022/01/12 06:19:18;;;;;;;1.53;1.43;;;;;;;1.98;99.26;102573.72;5074704;28;20171;-73
2022/01/12 06:21:44;;;;;;;1.50;1.40;;;;;;;1.98;99.64;102571.03;5072814;28;20228;-73
2022/01/12 06:24:09;;;;;;;2.07;1.50;;;;;;;2.02;99.49;102572.28;5074075;28;20269;-73
2022/01/12 06:26:36;;;;;;;0.77;0.77;;;;;;;2.05;99.61;102578.13;5072785;28;20668;-73
2022/01/12 06:31:43;;;;;;;1.50;1.40;;;;;;;2.15;100.00;102583.09;5073899;28;20424;-73
2022/01/12 06:34:08;;;;;;;0.77;0.77;;;;;;;2.16;100.00;102575.84;5073985;28;20421;-72
2022/01/12 06:36:33;;;;;;;1.53;1.43;;;;;;;2.16;100.00;102565.06;5073587;28;20635;-73
2022/01/12 06:38:59;;;;;;;2.67;2.17;;;;;;;2.18;100.00;102573.81;5074131;28;20254;-73
2022/01/12 06:41:25;;;;;;;0.87;0.87;;;;;;;2.17;100.00;102570.28;5073634;28;20627;-73
2022/01/12 06:43:51;;;;;;;1.50;1.27;;;;;;;2.18;100.00;102566.53;5073774;28;20179;-73
2022/01/12 06:46:23;;;;;;;1.13;1.07;;;;;;;2.18;100.00;102573.81;5073440;28;20229;-73
2022/01/12 06:48:49;;;;;;;0.90;0.87;;;;;;;2.17;100.00;102572.97;5073584;28;20417;-73
2022/01/12 06:51:14;;;;;;;1.03;0.87;;;;;;;2.15;100.00;102582.28;5072215;28;20440;-73
2022/01/12 06:53:40;;;;;;;8.43;2.07;;;;;;;2.15;100.00;102588.50;5073634;28;20420;-73
2022/01/12 06:56:08;;;;;;;2.90;2.43;;;;;;;2.15;100.00;102587.66;5073266;28;20186;-73
2022/01/12 06:58:34;;;;;;;1.87;1.63;;;;;;;2.14;100.00;102580.63;5073340;28;20265;-73
2022/01/12 07:01:00;;;;;;;0.67;0.67;;;;;;;2.14;100.00;102589.53;5073325;28;20316;-73
2022/01/12 07:03:25;;;;;;;3.20;1.37;;;;;;;2.12;100.00;102586.22;5071970;28;20510;-73
2022/01/12 07:05:50;;;;;;;1.20;1.20;;;;;;;2.13;100.00;102595.97;5073103;28;20312;-73
2022/01/12 07:08:16;;;;;;;1.50;1.40;;;;;;;2.13;100.00;102590.56;5073424;28;20224;-73
2022/01/12 07:10:41;;;;;;;0.50;0.50;;;;;;;2.12;100.00;102597.00;5072339;28;20171;-73
2022/01/12 07:13:10;;;;;;;0.67;0.67;;;;;;;2.11;100.00;102602.59;5073198;28;20193;-73
2022/01/12 07:15:40;;;;;;;0.60;0.60;;;;;;;2.09;100.00;102606.31;5071341;28;20556;-73
2022/01/12 07:18:05;;;;;;;2.03;1.93;;;;;;;2.08;100.00;102611.91;5073113;28;20567;-73
2022/01/12 07:20:31;;;;;;;1.07;1.07;;;;;;;2.09;100.00;102603.63;5071893;28;20189;-73
2022/01/12 07:22:56;;;;;;;0.73;0.73;;;;;;;2.09;100.00;102606.31;5073002;28;20625;-73
2022/01/12 07:25:22;;;;;;;0.93;0.63;;;;;;;2.11;100.00;102605.28;5072793;28;20178;-73
2022/01/12 07:27:47;;;;;;;1.33;1.30;;;;;;;2.11;100.00;102607.97;5071540;28;20178;-73
2022/01/12 07:30:13;;;;;;;4.70;1.63;;;;;;;2.11;100.00;102611.50;5071656;28;20683;-73
2022/01/12 07:32:39;;;;;;;3.43;3.10;;;;;;;2.12;100.00;102626.66;5073107;28;20170;-73
2022/01/12 07:35:05;;;;;;;2.13;2.03;;;;;;;2.14;100.00;102621.88;5072781;28;20232;-73
2022/01/12 07:37:31;;;;;;;1.57;1.47;;;;;;;2.14;100.00;102626.44;5072787;28;20179;-73
2022/01/12 07:39:57;;;;;;;1.00;0.93;;;;;;;2.13;100.00;102628.31;5071469;28;20181;-73
2022/01/12 07:42:23;;;;;;;1.80;1.70;;;;;;;2.13;100.00;102639.09;5072669;28;20198;-73
2022/01/12 07:44:48;;;;;;;7.47;4.50;;;;;;;2.13;100.00;102639.09;5072445;28;20170;-73
2022/01/12 07:47:14;;;;;;;2.63;2.43;;;;;;;2.12;100.00;102634.75;5072829;28;20781;-73
2022/01/12 07:49:39;;;;;;;3.27;2.97;;;;;;;2.11;100.00;102643.88;5071311;28;20213;-74
2022/01/12 07:52:05;;;;;;;2.53;2.33;;;;;;;2.11;100.00;102654.66;5071277;28;20602;-73
2022/01/12 07:54:30;;;;;;;2.87;2.67;;;;;;;2.10;100.00;102653.00;5072910;28;20693;-73
2022/01/12 07:56:56;;;;;;;1.13;0.97;;;;;;;2.10;100.00;102658.38;5072347;28;20175;-73
2022/01/12 07:59:21;;;;;;;10.73;2.10;;;;;;;2.12;100.00;102661.69;5072565;28;20190;-73
2022/01/12 08:01:46;;;;;;;1.83;1.73;;;;;;;2.10;100.00;102658.38;5072472;28;20232;-74
2022/01/12 08:04:11;;;;;;;1.53;0.83;;;;;;;2.10;100.00;102666.47;5071179;28;20179;-74
2022/01/12 08:06:37;;;;;;;1.17;1.17;;;;;;;2.12;100.00;102671.66;5070786;28;20178;-73
2022/01/12 08:09:02;;;;;;;1.57;1.47;;;;;;;2.13;100.00;102662.53;5072438;28;20189;-73
2022/01/12 08:11:29;;;;;;;1.57;1.47;;;;;;;2.14;100.00;102666.88;5070888;28;20182;-73
2022/01/12 08:13:54;;;;;;;3.87;3.47;;;;;;;2.12;100.00;102677.88;5072292;28;20250;-73
2022/01/12 08:16:20;;;;;;;1.23;1.23;;;;;;;2.11;100.00;102673.53;5072117;28;20175;-73
2022/01/12 08:18:45;;;;;;;8.20;2.67;;;;;;;2.13;100.00;102681.41;5070815;28;20261;-73
2022/01/12 08:21:10;;;;;;;3.23;2.10;;;;;;;2.12;100.00;102685.97;5067062;28;20194;-72
2022/01/12 08:23:36;;;;;;;0.77;0.77;;;;;;;2.12;100.00;102675.19;5074432;28;20296;-74
2022/01/12 08:26:02;;;;;;;0.50;0.50;;;;;;;2.13;100.00;102694.88;5090447;28;20209;-74
2022/01/12 08:28:27;;;;;;;2.17;1.70;;;;;;;2.14;100.00;102692.00;5071773;28;20308;-73
2022/01/12 08:30:52;;;;;;;2.30;2.20;;;;;;;2.14;100.00;102689.28;5072065;28;20175;-73
2022/01/12 08:33:18;;;;;;;1.70;0.80;;;;;;;2.15;100.00;102692.81;5074060;28;20185;-73
2022/01/12 08:35:43;;;;;;;1.97;1.87;;;;;;;2.14;100.00;102691.16;5081644;28;20217;-73
2022/01/12 08:38:09;;;;;;;3.03;2.77;;;;;;;2.15;100.00;102684.72;5072331;28;20384;-73
2022/01/12 08:40:37;;;;;;;5.60;2.23;;;;;;;2.17;100.00;102694.31;5072950;28;20178;-72
2022/01/12 08:43:03;;;;;;;1.43;1.33;;;;;;;2.17;100.00;102702.41;5071943;28;20261;-72
2022/01/12 08:45:29;;;;;;;3.27;2.97;;;;;;;2.18;100.00;102697.84;5071681;28;20174;-75
2022/01/12 08:47:55;;;;;;;4.97;4.43;;;;;;;2.20;100.00;102699.31;5070228;28;20573;-75
2022/01/12 08:50:21;;;;;;;6.83;4.67;;;;;;;2.18;100.00;102708.63;5071798;28;20171;-75
2022/01/12 08:52:48;;;;;;;3.87;3.50;;;;;;;2.18;100.00;102706.75;5071514;28;20175;-74
2022/01/12 08:55:17;;;;;;;4.17;3.60;;;;;;;2.18;100.00;102704.06;5071502;28;20174;-73
2022/01/12 08:57:42;;;;;;;3.67;3.37;;;;;;;2.20;100.00;102699.31;5071207;28;20582;-74
2022/01/12 09:00:09;;;;;;;3.67;1.77;;;;;;;2.21;100.00;102702.81;5070091;28;20494;-78
2022/01/12 09:02:35;;;;;;;3.67;3.37;;;;;;;2.22;100.00;102704.50;5070006;28;20209;-72
2022/01/12 09:05:00;;;;;;;1.47;1.30;;;;;;;2.23;100.00;102712.38;5071023;28;20173;-72
2022/01/12 09:07:26;;;;;;;7.50;5.10;;;;;;;2.24;100.00;102700.56;5071196;28;20634;-72
2022/01/12 09:09:52;;;;;;;8.03;7.23;;;;;;;2.25;100.00;102701.38;5071217;28;20315;-71
2022/01/12 09:12:17;;;;;;;8.07;4.37;;;;;;;2.23;100.00;102696.19;5069795;28;20262;-71
2022/01/12 09:14:44;;;;;;;2.40;2.30;;;;;;;2.22;100.00;102699.94;5070733;28;20289;-71
2022/01/12 09:17:16;;;;;;;5.93;4.30;;;;;;;2.23;100.00;102700.75;5070917;28;20166;-72
2022/01/12 09:19:42;;;;;;;1.70;1.60;;;;;;;2.23;100.00;102706.97;5071017;28;20650;-72
2022/01/12 09:22:07;;;;;;;4.33;3.00;;;;;;;2.22;100.00;102710.72;5069437;28;20278;-72
2022/01/12 09:24:32;;;;;;;8.23;5.47;;;;;;;2.21;100.00;102716.31;5070378;28;20187;-71
2022/01/12 09:26:58;;;;;;;4.57;2.53;;;;;;;2.23;100.00;102719.63;5069293;28;20183;-71
2022/01/12 09:29:23;;;;;;;5.37;2.77;;;;;;;2.23;100.00;102723.16;5070625;28;20177;-72
2022/01/12 09:31:49;;;;;;;2.60;2.50;;;;;;;2.21;100.00;102716.31;5070617;28;20178;-72
2022/01/12 09:34:15;;;;;;;17.00;5.73;;;;;;;2.20;100.00;102717.34;5069389;28;20186;-72
2022/01/12 09:36:40;;;;;;;5.87;3.83;;;;;;;2.18;100.00;102725.63;5069169;28;20170;-72
2022/01/12 09:39:07;;;;;;;7.23;3.27;;;;;;;2.19;100.00;102732.69;5070469;28;20175;-72
2022/01/12 09:41:32;;;;;;;11.00;4.83;;;;;;;2.20;100.00;102720.88;5070152;28;20630;-72
2022/01/12 09:43:58;;;;;;;2.63;2.37;;;;;;;2.22;100.00;102726.06;5069068;28;20189;-72
2022/01/12 09:46:28;;;;;;;3.60;3.30;;;;;;;2.20;100.00;102739.75;5070289;28;20471;-72
2022/01/12 09:48:55;;;;;;;4.40;3.80;;;;;;;2.20;100.00;102745.16;5070341;28;20673;-72
2022/01/12 09:51:22;;;;;;;3.67;3.03;;;;;;;2.22;100.00;102747.63;5070448;28;20170;-72
2022/01/12 09:53:49;;;;;;;7.60;6.73;;;;;;;2.21;100.00;102752.19;5070321;28;21128;-72
2022/01/12 09:56:17;;;;;;;7.87;6.47;;;;;;;2.22;100.00;102753.88;5070352;28;20178;-72
2022/01/12 09:58:43;;;;;;;6.97;4.83;;;;;;;2.27;100.00;102756.78;5069118;28;20260;-72
2022/01/12 10:01:10;;;;;;;3.47;3.23;;;;;;;2.27;100.00;102754.09;5070557;28;20650;-72
2022/01/12 10:03:36;;;;;;;3.50;3.30;;;;;;;2.28;100.00;102753.06;5068857;28;20677;-72
2022/01/12 10:06:15;;;;;;;6.50;5.83;;;;;;;2.29;100.00;102749.31;5070142;28;20175;-72
2022/01/12 10:08:41;;;;;;;6.47;3.87;;;;;;;2.32;100.00;102754.34;5068958;28;20185;-72
2022/01/12 10:11:13;;;;;;;7.67;7.03;;;;;;;2.32;100.00;102751.66;5070367;28;20597;-72
2022/01/12 10:13:40;;;;;;;3.63;3.27;;;;;;;2.33;100.00;102758.69;5070137;28;20179;-72
2022/01/12 10:16:16;;;;;;;10.93;4.20;;;;;;;2.35;100.00;102755.81;5069942;28;20174;-72
2022/01/12 10:18:47;;;;;;;11.87;9.60;;;;;;;2.33;100.00;102750.59;5070052;28;20253;-72
2022/01/12 10:21:25;;;;;;;5.47;5.07;;;;;;;2.34;100.00;102754.97;5070154;28;20175;-72
2022/01/12 10:24:01;;;;;;;4.50;3.90;;;;;;;2.36;100.00;102761.00;5068854;28;20260;-72
2022/01/12 10:26:37;;;;;;;12.43;9.90;;;;;;;2.38;100.00;102758.09;5068630;28;20170;-72
2022/01/12 10:29:09;;;;;;;6.67;6.17;;;;;;;2.38;100.00;102750.84;5070130;28;20174;-72
2022/01/12 10:31:43;;;;;;;5.13;4.80;;;;;;;2.35;100.00;102751.25;5068940;28;20179;-72
2022/01/12 10:34:08;;;;;;;4.50;4.13;;;;;;;2.38;100.00;102752.69;5070027;28;20234;-72
2022/01/12 10:36:42;;;;;;;3.20;3.00;;;;;;;2.30;100.00;102740.19;5068425;28;20224;-72
2022/01/12 10:39:09;;;;;;;4.33;3.73;;;;;;;2.28;100.00;102736.03;5068631;28;20189;-72
2022/01/12 10:41:35;;;;;;;4.50;4.17;;;;;;;2.31;100.00;102736.47;5068586;28;20242;-72
2022/01/12 10:44:00;;;;;;;3.30;3.00;;;;;;;2.28;100.00;102736.03;5068465;28;20210;-72
2022/01/12 10:46:29;;;;;;;12.67;7.80;;;;;;;2.29;100.00;102726.91;5068203;28;20179;-72
2022/01/12 10:48:55;;;;;;;6.40;5.77;;;;;;;2.33;100.00;102718.25;5070197;28;20265;-72
2022/01/12 10:51:23;;;;;;;6.20;4.87;;;;;;;2.39;100.00;102722.81;5072367;28;20174;-72
2022/01/12 10:53:51;;;;;;;10.70;7.13;;;;;;;2.46;100.00;102716.59;5073451;28;20178;-71
2022/01/12 10:56:19;;;;;;;12.50;4.60;;;;;;;2.48;100.00;102717.28;5073560;28;20178;-72
2022/01/12 10:58:49;;;;;;;5.40;4.53;;;;;;;2.51;100.00;102720.38;5072012;28;20698;-72
2022/01/12 11:01:19;;;;;;;7.43;5.60;;;;;;;2.53;100.00;102729.09;5073632;28;20470;-72
2022/01/12 11:03:44;;;;;;;8.17;6.03;;;;;;;2.48;100.00;102720.78;5071873;28;20218;-72
2022/01/12 11:06:10;;;;;;;6.50;4.67;;;;;;;2.50;100.00;102721.41;5071726;28;20427;-72
2022/01/12 11:08:38;;;;;;;8.87;7.73;;;;;;;2.51;100.00;102741.13;5073290;28;20166;-72
2022/01/12 11:11:04;;;;;;;5.53;5.00;;;;;;;2.53;100.00;102712.09;5073415;28;20187;-72
2022/01/12 11:13:31;;;;;;;15.50;10.90;;;;;;;2.53;100.00;102731.81;5073320;28;20631;-72
2022/01/12 11:15:59;;;;;;;11.63;7.80;;;;;;;2.57;100.00;102748.41;5072732;28;20186;-72
2022/01/12 11:18:28;;;;;;;9.57;8.67;;;;;;;2.58;100.00;102750.06;5073099;28;20174;-72
2022/01/12 11:21:01;;;;;;;12.53;10.43;;;;;;;2.62;100.00;102762.16;5071753;28;20199;-72
2022/01/12 11:23:39;;;;;;;12.67;10.37;;;;;;;2.59;100.00;102766.06;5072715;28;20251;-72
2022/01/12 11:26:22;;;;;;;20.03;10.20;;;;;;;2.66;100.00;102760.72;5072647;28;20627;-72
2022/01/12 11:28:49;;;;;;;11.53;7.53;;;;;;;2.62;100.00;102763.00;5072799;28;20245;-72
2022/01/12 11:31:19;;;;;;;10.23;9.20;;;;;;;2.61;100.00;102758.63;5072819;28;20570;-72
2022/01/12 11:33:45;;;;;;;9.30;5.63;;;;;;;2.64;100.00;102757.38;5073048;28;20213;-72
2022/01/12 11:36:12;;;;;;;6.00;5.60;;;;;;;2.64;100.00;102752.00;5072602;28;20171;-72
2022/01/12 11:38:38;;;;;;;22.37;12.33;;;;;;;2.67;100.00;102746.19;5073579;28;20204;-72
2022/01/12 11:41:23;;;;;;;12.83;8.83;;;;;;;2.73;100.00;102764.25;5071397;28;20257;-72
2022/01/12 11:43:53;;;;;;;9.47;6.17;;;;;;;2.71;100.00;102760.94;5072550;28;20206;-72
2022/01/12 11:46:23;;;;;;;5.10;4.57;;;;;;;2.70;100.00;102770.06;5072207;28;20170;-72
2022/01/12 11:48:52;;;;;;;16.27;9.27;;;;;;;2.69;100.00;102754.91;5072704;28;20175;-72
2022/01/12 11:51:19;;;;;;;6.50;5.87;;;;;;;2.76;100.00;102763.88;5072527;28;20173;-72
2022/01/12 11:53:45;;;;;;;7.90;7.17;;;;;;;2.76;100.00;102765.75;5070938;28;20190;-72
2022/01/12 11:56:12;;;;;;;15.87;14.23;;;;;;;2.77;100.00;102762.00;5072200;28;20175;-72
2022/01/12 11:58:55;;;;;;;13.10;9.90;;;;;;;2.77;100.00;102779.03;5072292;28;20175;-72
2022/01/12 12:01:24;;;;;;;18.90;10.27;;;;;;;2.79;100.00;102766.16;5071231;28;20193;-72
2022/01/12 12:04:00;;;;;;;6.63;6.17;;;;;;;2.82;100.00;102768.44;5072382;28;20201;-72
2022/01/12 12:06:27;;;;;;;18.30;9.03;;;;;;;2.80;100.00;102770.53;5070922;28;20183;-72
2022/01/12 12:09:01;;;;;;;16.60;10.77;;;;;;;2.83;100.00;102769.28;5072192;28;20174;-72
2022/01/12 12:11:31;;;;;;;6.67;4.77;;;;;;;2.85;100.00;102762.63;5072030;28;20174;-72
2022/01/12 12:14:01;;;;;;;12.27;11.03;;;;;;;2.88;100.00;102764.09;5070630;28;20179;-72
2022/01/12 12:16:28;;;;;;;9.93;8.90;;;;;;;2.87;100.00;102765.13;5070603;28;20622;-72
2022/01/12 12:18:55;;;;;;;5.00;4.33;;;;;;;2.91;100.00;102747.50;5072085;28;20177;-72
2022/01/12 12:21:20;;;;;;;9.90;8.90;;;;;;;2.94;100.00;102749.81;5071891;28;20167;-72
2022/01/12 12:23:47;;;;;;;8.20;6.07;;;;;;;2.98;100.00;102748.34;5071899;28;20682;-72
2022/01/12 12:26:13;;;;;;;15.60;8.00;;;;;;;3.04;100.00;102746.69;5070351;28;20528;-72
2022/01/12 12:28:38;;;;;;;6.93;6.33;;;;;;;3.06;100.00;102747.34;5071964;28;20249;-72
2022/01/12 12:31:05;;;;;;;15.03;10.80;;;;;;;3.10;100.00;102751.28;5071698;28;20177;-72
2022/01/12 12:33:30;;;;;;;5.57;4.27;;;;;;;3.14;100.00;102752.53;5071624;28;20680;-72
2022/01/12 12:35:57;;;;;;;17.73;12.80;;;;;;;3.21;100.00;102743.44;5070107;28;20649;-72
2022/01/12 12:38:22;;;;;;;10.47;7.60;;;;;;;3.27;100.00;102747.16;5071645;28;20206;-72
2022/01/12 12:40:57;;;;;;;11.47;7.63;;;;;;;3.31;100.00;102742.16;5071656;28;20645;-72
2022/01/12 12:43:26;;;;;;;10.00;8.30;;;;;;;3.37;100.00;102744.06;5070044;28;20233;-72
2022/01/12 12:45:54;;;;;;;7.47;5.53;;;;;;;3.42;100.00;102753.19;5071151;28;20174;-72
2022/01/12 12:48:22;;;;;;;11.30;8.10;;;;;;;3.44;100.00;102747.59;5071319;28;20178;-72
2022/01/12 12:50:58;;;;;;;6.10;3.53;;;;;;;3.47;100.00;102741.75;5070287;28;20183;-72
2022/01/12 12:53:28;;;;;;;7.93;4.43;;;;;;;3.43;100.00;102752.16;5072575;28;20312;-72
2022/01/12 12:55:54;;;;;;;6.13;4.97;;;;;;;3.41;100.00;102753.41;5085106;28;20568;-71
2022/01/12 12:58:19;;;;;;;13.67;8.27;;;;;;;3.40;100.00;102755.28;5071686;28;20175;-72